sensor_id;sensor_type;location;lat;lon;timestamp;P1;durP1;ratioP1;P2;durP2;ratioP2
47401;SDS011;33155;48.370;-3.750;2022-09-09T06:01:03;3.78;;;1.10;;
47401;SDS011;33155;48.370;-3.750;2022-09-09T06:03:30;2.30;;;1.10;;
47401;SDS011;33155;48.370;-3.750;2022-09-09T06:05:59;3.85;;;1.30;;
47401;SDS011;33155;48.370;-3.750;2022-09-09T06:08:26;6.40;;;2.13;;
47401;SDS011;33155;48.370;-3.750;2022-09-09T06:10:52;8.70;;;1.75;;
47401;SDS011;33155;48.370;-3.750;2022-09-09T06:13:17;7.47;;;1.85;;
47401;SDS011;33155;48.370;-3.750;2022-09-09T06:15:52;9.70;;;2.83;;
47401;SDS011;33155;48.370;-3.750;2022-09-09T06:18:18;9.05;;;1.85;;
47401;SDS011;33155;48.370;-3.750;2022-09-09T06:21:00;6.95;;;2.00;;
47401;SDS011;33155;48.370;-3.750;2022-09-09T06:23:27;4.22;;;1.42;;
47401;SDS011;33155;48.370;-3.750;2022-09-09T06:26:03;3.00;;;1.75;;
47401;SDS011;33155;48.370;-3.750;2022-09-09T06:28:31;4.63;;;1.70;;
47401;SDS011;33155;48.370;-3.750;2022-09-09T06:30:58;5.03;;;1.60;;
47401;SDS011;33155;48.370;-3.750;2022-09-09T06:33:24;4.90;;;1.65;;
47401;SDS011;33155;48.370;-3.750;2022-09-09T06:35:53;4.05;;;1.30;;
47401;SDS011;33155;48.370;-3.750;2022-09-09T06:38:19;4.57;;;1.58;;
47401;SDS011;33155;48.370;-3.750;2022-09-09T06:40:56;3.58;;;2.17;;
47401;SDS011;33155;48.370;-3.750;2022-09-09T06:43:23;1.80;;;1.20;;
47401;SDS011;33155;48.370;-3.750;2022-09-09T06:46:08;2.67;;;1.10;;
47401;SDS011;33155;48.370;-3.750;2022-09-09T06:51:10;8.40;;;2.13;;
47401;SDS011;33155;48.370;-3.750;2022-09-09T06:53:38;3.85;;;1.38;;
47401;SDS011;33155;48.370;-3.750;2022-09-09T06:56:17;7.85;;;1.80;;
47401;SDS011;33155;48.370;-3.750;2022-09-09T06:58:44;2.67;;;1.05;;
47401;SDS011;33155;48.370;-3.750;2022-09-09T07:01:14;4.35;;;1.10;;
47401;SDS011;33155;48.370;-3.750;2022-09-09T07:03:48;4.53;;;1.30;;
47401;SDS011;33155;48.370;-3.750;2022-09-09T07:06:16;2.55;;;1.02;;
47401;SDS011;33155;48.370;-3.750;2022-09-09T07:08:43;2.28;;;1.25;;
47401;SDS011;33155;48.370;-3.750;2022-09-09T07:11:09;3.00;;;1.35;;
47401;SDS011;33155;48.370;-3.750;2022-09-09T07:13:36;3.88;;;1.45;;
47401;SDS011;33155;48.370;-3.750;2022-09-09T07:16:08;5.55;;;1.83;;
47401;SDS011;33155;48.370;-3.750;2022-09-09T07:18:35;8.60;;;2.30;;
47401;SDS011;33155;48.370;-3.750;2022-09-09T07:21:01;4.18;;;1.88;;
47401;SDS011;33155;48.370;-3.750;2022-09-09T07:23:28;2.72;;;1.30;;
47401;SDS011;33155;48.370;-3.750;2022-09-09T07:25:54;2.85;;;1.40;;
47401;SDS011;33155;48.370;-3.750;2022-09-09T07:28:21;5.00;;;1.48;;
47401;SDS011;33155;48.370;-3.750;2022-09-09T07:31:12;4.72;;;1.30;;
47401;SDS011;33155;48.370;-3.750;2022-09-09T07:33:34;4.70;;;1.75;;
47401;SDS011;33155;48.370;-3.750;2022-09-09T07:36:07;3.42;;;1.40;;
47401;SDS011;33155;48.370;-3.750;2022-09-09T07:38:47;2.60;;;1.27;;
47401;SDS011;33155;48.370;-3.750;2022-09-09T07:41:18;2.58;;;1.42;;
47401;SDS011;33155;48.370;-3.750;2022-09-09T07:43:48;3.67;;;1.27;;
47401;SDS011;33155;48.370;-3.750;2022-09-09T07:46:15;2.38;;;1.25;;
47401;SDS011;33155;48.370;-3.750;2022-09-09T07:48:45;4.50;;;1.45;;
47401;SDS011;33155;48.370;-3.750;2022-09-09T07:51:13;6.38;;;1.52;;
47401;SDS011;33155;48.370;-3.750;2022-09-09T07:53:43;6.63;;;2.15;;
47401;SDS011;33155;48.370;-3.750;2022-09-09T07:56:10;4.90;;;1.27;;
47401;SDS011;33155;48.370;-3.750;2022-09-09T07:58:46;5.30;;;1.52;;
47401;SDS011;33155;48.370;-3.750;2022-09-09T08:01:17;4.65;;;1.63;;
47401;SDS011;33155;48.370;-3.750;2022-09-09T08:03:44;2.72;;;1.50;;
47401;SDS011;33155;48.370;-3.750;2022-09-09T08:06:11;5.47;;;1.60;;
47401;SDS011;33155;48.370;-3.750;2022-09-09T08:08:38;3.97;;;1.60;;
47401;SDS011;33155;48.370;-3.750;2022-09-09T08:13:35;4.07;;;1.50;;
47401;SDS011;33155;48.370;-3.750;2022-09-09T08:18:51;1.45;;;0.98;;
47401;SDS011;33155;48.370;-3.750;2022-09-09T08:21:20;2.30;;;1.30;;
47401;SDS011;33155;48.370;-3.750;2022-09-09T08:23:49;2.00;;;1.05;;
47401;SDS011;33155;48.370;-3.750;2022-09-09T08:26:20;2.10;;;1.10;;
47401;SDS011;33155;48.370;-3.750;2022-09-09T08:28:50;4.47;;;1.23;;
47401;SDS011;33155;48.370;-3.750;2022-09-09T08:31:21;3.47;;;1.52;;
47401;SDS011;33155;48.370;-3.750;2022-09-09T08:33:47;4.65;;;1.40;;
47401;SDS011;33155;48.370;-3.750;2022-09-09T08:36:14;6.55;;;1.92;;
47401;SDS011;33155;48.370;-3.750;2022-09-09T08:38:46;3.50;;;1.20;;
47401;SDS011;33155;48.370;-3.750;2022-09-09T08:58:26;2.20;;;1.10;;
47401;SDS011;33155;48.370;-3.750;2022-09-09T09:11:54;4.40;;;1.70;;
47401;SDS011;33155;48.370;-3.750;2022-09-09T09:14:25;9.10;;;2.15;;
47401;SDS011;33155;48.370;-3.750;2022-09-09T09:17:02;4.40;;;1.27;;
47401;SDS011;33155;48.370;-3.750;2022-09-09T09:19:29;3.72;;;1.52;;
47401;SDS011;33155;48.370;-3.750;2022-09-09T09:25:35;8.50;;;1.58;;
47401;SDS011;33155;48.370;-3.750;2022-09-09T09:28:02;4.45;;;1.70;;
47401;SDS011;33155;48.370;-3.750;2022-09-09T09:30:36;5.35;;;1.50;;
47401;SDS011;33155;48.370;-3.750;2022-09-09T09:33:06;5.05;;;1.20;;
47401;SDS011;33155;48.370;-3.750;2022-09-09T09:35:36;5.93;;;1.90;;
47401;SDS011;33155;48.370;-3.750;2022-09-09T09:38:08;3.33;;;1.25;;
47401;SDS011;33155;48.370;-3.750;2022-09-09T09:40:51;7.07;;;1.80;;
47401;SDS011;33155;48.370;-3.750;2022-09-09T09:43:22;7.63;;;1.80;;
47401;SDS011;33155;48.370;-3.750;2022-09-09T09:45:56;4.57;;;2.20;;
47401;SDS011;33155;48.370;-3.750;2022-09-09T09:48:22;5.50;;;1.77;;
47401;SDS011;33155;48.370;-3.750;2022-09-09T09:50:52;4.18;;;1.83;;
47401;SDS011;33155;48.370;-3.750;2022-09-09T09:53:27;5.97;;;1.50;;
47401;SDS011;33155;48.370;-3.750;2022-09-09T09:56:01;8.63;;;1.77;;
47401;SDS011;33155;48.370;-3.750;2022-09-09T09:58:35;4.75;;;1.55;;
47401;SDS011;33155;48.370;-3.750;2022-09-09T10:01:04;2.00;;;1.20;;
47401;SDS011;33155;48.370;-3.750;2022-09-09T10:03:33;5.38;;;1.40;;
47401;SDS011;33155;48.370;-3.750;2022-09-09T10:06:03;4.53;;;1.40;;
47401;SDS011;33155;48.370;-3.750;2022-09-09T10:08:29;5.15;;;1.40;;
47401;SDS011;33155;48.370;-3.750;2022-09-09T10:11:20;12.35;;;2.03;;
47401;SDS011;33155;48.370;-3.750;2022-09-09T10:14:14;5.25;;;2.17;;
47401;SDS011;33155;48.370;-3.750;2022-09-09T10:19:32;4.70;;;1.52;;
47401;SDS011;33155;48.370;-3.750;2022-09-09T10:25:14;5.72;;;2.13;;
47401;SDS011;33155;48.370;-3.750;2022-09-09T10:36:47;2.33;;;1.23;;
47401;SDS011;33155;48.370;-3.750;2022-09-09T10:48:18;7.50;;;1.85;;
47401;SDS011;33155;48.370;-3.750;2022-09-09T10:53:26;8.77;;;1.65;;
47401;SDS011;33155;48.370;-3.750;2022-09-09T10:56:07;3.00;;;1.05;;
47401;SDS011;33155;48.370;-3.750;2022-09-09T10:58:42;3.75;;;1.20;;
47401;SDS011;33155;48.370;-3.750;2022-09-09T11:01:25;6.05;;;1.20;;
47401;SDS011;33155;48.370;-3.750;2022-09-09T11:03:56;4.00;;;1.45;;
47401;SDS011;33155;48.370;-3.750;2022-09-09T11:06:28;3.72;;;1.42;;
47401;SDS011;33155;48.370;-3.750;2022-09-09T11:08:57;1.83;;;1.05;;
47401;SDS011;33155;48.370;-3.750;2022-09-09T11:11:39;9.20;;;2.15;;
47401;SDS011;33155;48.370;-3.750;2022-09-09T11:14:13;5.85;;;1.60;;
47401;SDS011;33155;48.370;-3.750;2022-09-09T11:16:39;2.53;;;0.95;;
47401;SDS011;33155;48.370;-3.750;2022-09-09T11:19:11;2.75;;;1.65;;
47401;SDS011;33155;48.370;-3.750;2022-09-09T11:21:59;1.60;;;1.05;;
47401;SDS011;33155;48.370;-3.750;2022-09-09T11:24:35;0.93;;;0.88;;
47401;SDS011;33155;48.370;-3.750;2022-09-09T11:29:47;1.85;;;0.90;;
47401;SDS011;33155;48.370;-3.750;2022-09-09T11:38:24;4.05;;;1.63;;
47401;SDS011;33155;48.370;-3.750;2022-09-09T11:41:04;2.80;;;1.23;;
47401;SDS011;33155;48.370;-3.750;2022-09-09T11:46:10;3.83;;;1.00;;
47401;SDS011;33155;48.370;-3.750;2022-09-09T11:48:38;3.20;;;1.15;;
47401;SDS011;33155;48.370;-3.750;2022-09-09T11:51:11;3.25;;;1.05;;
47401;SDS011;33155;48.370;-3.750;2022-09-09T11:53:58;2.80;;;1.08;;
47401;SDS011;33155;48.370;-3.750;2022-09-09T12:01:26;4.05;;;1.75;;
47401;SDS011;33155;48.370;-3.750;2022-09-09T12:04:05;2.95;;;0.73;;
47401;SDS011;33155;48.370;-3.750;2022-09-09T12:06:46;1.85;;;0.93;;
47401;SDS011;33155;48.370;-3.750;2022-09-09T12:09:18;5.90;;;1.23;;
47401;SDS011;33155;48.370;-3.750;2022-09-09T12:12:04;2.63;;;1.10;;
47401;SDS011;33155;48.370;-3.750;2022-09-09T12:14:39;3.42;;;1.33;;
47401;SDS011;33155;48.370;-3.750;2022-09-09T12:17:22;1.42;;;0.77;;
47401;SDS011;33155;48.370;-3.750;2022-09-09T12:25:19;3.20;;;1.00;;
47401;SDS011;33155;48.370;-3.750;2022-09-09T12:30:24;7.15;;;1.10;;
47401;SDS011;33155;48.370;-3.750;2022-09-09T12:33:11;3.05;;;0.98;;
47401;SDS011;33155;48.370;-3.750;2022-09-09T12:35:38;3.05;;;1.00;;
47401;SDS011;33155;48.370;-3.750;2022-09-09T12:38:05;3.28;;;1.27;;
47401;SDS011;33155;48.370;-3.750;2022-09-09T12:40:35;1.15;;;0.80;;
47401;SDS011;33155;48.370;-3.750;2022-09-09T12:43:19;1.13;;;0.73;;
47401;SDS011;33155;48.370;-3.750;2022-09-09T12:45:49;4.63;;;2.13;;
47401;SDS011;33155;48.370;-3.750;2022-09-09T12:48:21;5.45;;;1.20;;
47401;SDS011;33155;48.370;-3.750;2022-09-09T12:50:52;3.95;;;1.38;;
47401;SDS011;33155;48.370;-3.750;2022-09-09T12:53:34;2.70;;;1.30;;
47401;SDS011;33155;48.370;-3.750;2022-09-09T12:56:04;4.45;;;1.88;;
47401;SDS011;33155;48.370;-3.750;2022-09-09T13:01:01;4.15;;;1.10;;
47401;SDS011;33155;48.370;-3.750;2022-09-09T13:03:32;2.90;;;1.00;;
47401;SDS011;33155;48.370;-3.750;2022-09-09T13:05:59;4.15;;;0.80;;
47401;SDS011;33155;48.370;-3.750;2022-09-09T13:08:37;4.40;;;1.23;;
47401;SDS011;33155;48.370;-3.750;2022-09-09T13:11:13;2.75;;;1.00;;
47401;SDS011;33155;48.370;-3.750;2022-09-09T13:13:41;3.28;;;0.95;;
47401;SDS011;33155;48.370;-3.750;2022-09-09T13:16:25;4.68;;;1.52;;
47401;SDS011;33155;48.370;-3.750;2022-09-09T13:18:56;2.38;;;0.88;;
47401;SDS011;33155;48.370;-3.750;2022-09-09T13:21:34;3.03;;;0.98;;
47401;SDS011;33155;48.370;-3.750;2022-09-09T13:24:06;4.65;;;0.95;;
47401;SDS011;33155;48.370;-3.750;2022-09-09T13:27:23;3.92;;;1.02;;
47401;SDS011;33155;48.370;-3.750;2022-09-09T13:29:53;3.58;;;1.00;;
47401;SDS011;33155;48.370;-3.750;2022-09-09T13:32:23;6.22;;;1.30;;
47401;SDS011;33155;48.370;-3.750;2022-09-09T13:34:56;3.80;;;1.08;;
47401;SDS011;33155;48.370;-3.750;2022-09-09T13:37:36;3.58;;;1.48;;
47401;SDS011;33155;48.370;-3.750;2022-09-09T13:40:06;5.18;;;1.23;;
47401;SDS011;33155;48.370;-3.750;2022-09-09T13:42:42;3.85;;;0.80;;
47401;SDS011;33155;48.370;-3.750;2022-09-09T13:45:19;2.78;;;1.33;;
47401;SDS011;33155;48.370;-3.750;2022-09-09T13:47:46;5.47;;;1.52;;
47401;SDS011;33155;48.370;-3.750;2022-09-09T13:50:28;3.33;;;1.08;;
47401;SDS011;33155;48.370;-3.750;2022-09-09T13:52:55;2.70;;;1.00;;
47401;SDS011;33155;48.370;-3.750;2022-09-09T13:55:23;2.65;;;0.65;;
47401;SDS011;33155;48.370;-3.750;2022-09-09T13:57:51;2.90;;;0.75;;
47401;SDS011;33155;48.370;-3.750;2022-09-09T14:00:21;2.13;;;0.80;;
47401;SDS011;33155;48.370;-3.750;2022-09-09T14:02:50;1.70;;;0.70;;
47401;SDS011;33155;48.370;-3.750;2022-09-09T14:05:16;3.67;;;0.77;;
47401;SDS011;33155;48.370;-3.750;2022-09-09T14:07:43;2.33;;;1.08;;
47401;SDS011;33155;48.370;-3.750;2022-09-09T14:10:09;1.45;;;0.75;;
47401;SDS011;33155;48.370;-3.750;2022-09-09T14:12:35;4.35;;;0.85;;
47401;SDS011;33155;48.370;-3.750;2022-09-09T14:15:01;2.53;;;0.82;;
47401;SDS011;33155;48.370;-3.750;2022-09-09T14:17:28;2.05;;;0.90;;
47401;SDS011;33155;48.370;-3.750;2022-09-09T14:19:55;8.02;;;1.88;;
47401;SDS011;33155;48.370;-3.750;2022-09-09T14:22:21;3.08;;;0.80;;
47401;SDS011;33155;48.370;-3.750;2022-09-09T14:24:47;2.83;;;1.00;;
47401;SDS011;33155;48.370;-3.750;2022-09-09T14:27:12;1.17;;;0.75;;
47401;SDS011;33155;48.370;-3.750;2022-09-09T14:29:38;1.55;;;0.80;;
47401;SDS011;33155;48.370;-3.750;2022-09-09T14:32:03;1.20;;;0.70;;
47401;SDS011;33155;48.370;-3.750;2022-09-09T14:34:29;1.95;;;0.80;;
47401;SDS011;33155;48.370;-3.750;2022-09-09T14:36:57;2.88;;;0.80;;
47401;SDS011;33155;48.370;-3.750;2022-09-09T14:39:22;3.85;;;0.85;;
47401;SDS011;33155;48.370;-3.750;2022-09-09T14:41:48;1.30;;;0.60;;
47401;SDS011;33155;48.370;-3.750;2022-09-09T14:44:13;2.70;;;0.95;;
47401;SDS011;33155;48.370;-3.750;2022-09-09T14:46:41;2.28;;;0.90;;
47401;SDS011;33155;48.370;-3.750;2022-09-09T14:49:07;2.28;;;1.02;;
47401;SDS011;33155;48.370;-3.750;2022-09-09T14:51:32;1.95;;;0.52;;
47401;SDS011;33155;48.370;-3.750;2022-09-09T14:53:59;1.42;;;0.75;;
47401;SDS011;33155;48.370;-3.750;2022-09-09T14:56:25;2.22;;;0.70;;
47401;SDS011;33155;48.370;-3.750;2022-09-09T14:58:53;3.75;;;0.80;;
47401;SDS011;33155;48.370;-3.750;2022-09-09T15:01:20;2.53;;;0.95;;
47401;SDS011;33155;48.370;-3.750;2022-09-09T15:03:53;2.22;;;1.23;;
47401;SDS011;33155;48.370;-3.750;2022-09-09T15:06:20;1.98;;;1.05;;
47401;SDS011;33155;48.370;-3.750;2022-09-09T15:08:49;3.92;;;1.35;;
47401;SDS011;33155;48.370;-3.750;2022-09-09T15:11:16;2.85;;;1.08;;
47401;SDS011;33155;48.370;-3.750;2022-09-09T15:13:42;0.95;;;0.80;;
47401;SDS011;33155;48.370;-3.750;2022-09-09T15:16:11;2.80;;;1.05;;
47401;SDS011;33155;48.370;-3.750;2022-09-09T15:18:37;5.95;;;1.20;;
47401;SDS011;33155;48.370;-3.750;2022-09-09T15:21:06;3.50;;;1.00;;
47401;SDS011;33155;48.370;-3.750;2022-09-09T15:23:31;3.55;;;0.82;;
47401;SDS011;33155;48.370;-3.750;2022-09-09T15:25:57;20.42;;;1.95;;
47401;SDS011;33155;48.370;-3.750;2022-09-09T15:28:23;3.72;;;1.25;;
47401;SDS011;33155;48.370;-3.750;2022-09-09T15:30:49;2.88;;;1.02;;
47401;SDS011;33155;48.370;-3.750;2022-09-09T15:33:17;4.88;;;1.75;;
47401;SDS011;33155;48.370;-3.750;2022-09-09T15:35:46;2.28;;;0.90;;
47401;SDS011;33155;48.370;-3.750;2022-09-09T15:38:14;1.65;;;0.88;;
47401;SDS011;33155;48.370;-3.750;2022-09-09T15:40:40;4.63;;;1.35;;
47401;SDS011;33155;48.370;-3.750;2022-09-09T15:43:06;1.02;;;0.73;;
47401;SDS011;33155;48.370;-3.750;2022-09-09T15:45:32;2.92;;;1.50;;
47401;SDS011;33155;48.370;-3.750;2022-09-09T15:47:59;6.80;;;1.45;;
47401;SDS011;33155;48.370;-3.750;2022-09-09T15:50:25;2.53;;;1.02;;
47401;SDS011;33155;48.370;-3.750;2022-09-09T15:52:51;2.92;;;1.00;;
47401;SDS011;33155;48.370;-3.750;2022-09-09T15:55:18;2.83;;;1.05;;
47401;SDS011;33155;48.370;-3.750;2022-09-09T15:57:46;3.03;;;1.25;;
47401;SDS011;33155;48.370;-3.750;2022-09-09T16:00:12;2.88;;;1.20;;
47401;SDS011;33155;48.370;-3.750;2022-09-09T16:02:39;3.15;;;1.02;;
47401;SDS011;33155;48.370;-3.750;2022-09-09T16:05:04;3.97;;;1.02;;
47401;SDS011;33155;48.370;-3.750;2022-09-09T16:07:30;2.55;;;1.15;;
47401;SDS011;33155;48.370;-3.750;2022-09-09T16:09:56;3.92;;;1.30;;
47401;SDS011;33155;48.370;-3.750;2022-09-09T16:12:21;3.30;;;0.80;;
47401;SDS011;33155;48.370;-3.750;2022-09-09T16:14:47;4.30;;;1.08;;
47401;SDS011;33155;48.370;-3.750;2022-09-09T16:17:12;2.65;;;1.23;;
47401;SDS011;33155;48.370;-3.750;2022-09-09T16:19:39;1.40;;;1.10;;
47401;SDS011;33155;48.370;-3.750;2022-09-09T16:22:04;2.05;;;0.85;;
47401;SDS011;33155;48.370;-3.750;2022-09-09T16:24:31;3.80;;;1.30;;
47401;SDS011;33155;48.370;-3.750;2022-09-09T16:26:57;2.85;;;1.05;;
47401;SDS011;33155;48.370;-3.750;2022-09-09T16:29:23;3.90;;;1.20;;
47401;SDS011;33155;48.370;-3.750;2022-09-09T16:31:49;1.85;;;0.70;;
47401;SDS011;33155;48.370;-3.750;2022-09-09T16:34:15;2.00;;;0.98;;
47401;SDS011;33155;48.370;-3.750;2022-09-09T16:36:42;1.65;;;0.60;;
47401;SDS011;33155;48.370;-3.750;2022-09-09T16:39:12;1.60;;;0.60;;
47401;SDS011;33155;48.370;-3.750;2022-09-09T16:41:39;1.45;;;0.70;;
47401;SDS011;33155;48.370;-3.750;2022-09-09T16:44:06;1.30;;;0.60;;
47401;SDS011;33155;48.370;-3.750;2022-09-09T16:46:34;1.42;;;0.60;;
47401;SDS011;33155;48.370;-3.750;2022-09-09T16:49:02;3.97;;;0.93;;
47401;SDS011;33155;48.370;-3.750;2022-09-09T16:51:30;2.58;;;0.80;;
47401;SDS011;33155;48.370;-3.750;2022-09-09T16:54:00;1.77;;;0.90;;
47401;SDS011;33155;48.370;-3.750;2022-09-09T16:56:27;2.45;;;0.93;;
47401;SDS011;33155;48.370;-3.750;2022-09-09T16:58:58;1.90;;;0.80;;
47401;SDS011;33155;48.370;-3.750;2022-09-09T17:01:28;1.02;;;0.52;;
47401;SDS011;33155;48.370;-3.750;2022-09-09T17:03:56;1.88;;;0.60;;
47401;SDS011;33155;48.370;-3.750;2022-09-09T17:06:23;1.67;;;0.70;;
47401;SDS011;33155;48.370;-3.750;2022-09-09T17:08:54;1.33;;;0.80;;
47401;SDS011;33155;48.370;-3.750;2022-09-09T17:11:20;1.10;;;0.57;;
47401;SDS011;33155;48.370;-3.750;2022-09-09T17:13:46;2.25;;;0.93;;
47401;SDS011;33155;48.370;-3.750;2022-09-09T17:16:12;0.95;;;0.57;;
47401;SDS011;33155;48.370;-3.750;2022-09-09T17:18:39;3.33;;;0.90;;
47401;SDS011;33155;48.370;-3.750;2022-09-09T17:21:06;3.53;;;0.88;;
47401;SDS011;33155;48.370;-3.750;2022-09-09T17:23:34;2.13;;;1.00;;
47401;SDS011;33155;48.370;-3.750;2022-09-09T17:26:03;2.95;;;0.90;;
47401;SDS011;33155;48.370;-3.750;2022-09-09T17:28:30;2.20;;;0.80;;
47401;SDS011;33155;48.370;-3.750;2022-09-09T17:30:59;1.85;;;1.00;;
47401;SDS011;33155;48.370;-3.750;2022-09-09T17:33:31;2.45;;;0.75;;
47401;SDS011;33155;48.370;-3.750;2022-09-09T17:36:08;2.65;;;0.75;;
47401;SDS011;33155;48.370;-3.750;2022-09-09T17:38:41;11.50;;;1.95;;
47401;SDS011;33155;48.370;-3.750;2022-09-09T17:41:14;4.60;;;0.80;;
47401;SDS011;33155;48.370;-3.750;2022-09-09T17:43:41;1.48;;;0.82;;
47401;SDS011;33155;48.370;-3.750;2022-09-09T17:48:37;1.83;;;1.05;;
47401;SDS011;33155;48.370;-3.750;2022-09-09T17:51:03;1.85;;;0.90;;
47401;SDS011;33155;48.370;-3.750;2022-09-09T17:53:40;1.30;;;0.70;;
47401;SDS011;33155;48.370;-3.750;2022-09-09T17:56:08;2.55;;;1.10;;
47401;SDS011;33155;48.370;-3.750;2022-09-09T17:58:35;1.45;;;0.90;;
47401;SDS011;33155;48.370;-3.750;2022-09-09T18:01:08;1.90;;;0.75;;
47401;SDS011;33155;48.370;-3.750;2022-09-09T18:03:37;1.55;;;0.65;;
47401;SDS011;33155;48.370;-3.750;2022-09-09T18:06:04;3.08;;;1.00;;
47401;SDS011;33155;48.370;-3.750;2022-09-09T18:08:34;2.22;;;0.80;;
47401;SDS011;33155;48.370;-3.750;2022-09-09T18:11:00;1.05;;;0.70;;
47401;SDS011;33155;48.370;-3.750;2022-09-09T18:13:27;2.10;;;1.38;;
47401;SDS011;33155;48.370;-3.750;2022-09-09T18:15:53;1.30;;;0.60;;
47401;SDS011;33155;48.370;-3.750;2022-09-09T18:18:19;1.95;;;0.90;;
47401;SDS011;33155;48.370;-3.750;2022-09-09T18:20:45;1.38;;;0.60;;
47401;SDS011;33155;48.370;-3.750;2022-09-09T18:23:11;2.65;;;0.82;;
47401;SDS011;33155;48.370;-3.750;2022-09-09T18:25:37;3.40;;;1.02;;
47401;SDS011;33155;48.370;-3.750;2022-09-09T18:28:04;0.93;;;0.60;;
47401;SDS011;33155;48.370;-3.750;2022-09-09T18:30:29;1.38;;;0.73;;
47401;SDS011;33155;48.370;-3.750;2022-09-09T18:32:56;2.20;;;1.00;;
47401;SDS011;33155;48.370;-3.750;2022-09-09T18:35:22;1.30;;;0.80;;
47401;SDS011;33155;48.370;-3.750;2022-09-09T18:37:48;3.75;;;1.00;;
47401;SDS011;33155;48.370;-3.750;2022-09-09T18:40:13;0.85;;;0.70;;
47401;SDS011;33155;48.370;-3.750;2022-09-09T18:42:39;0.40;;;0.40;;
47401;SDS011;33155;48.370;-3.750;2022-09-09T18:45:05;1.75;;;0.80;;
47401;SDS011;33155;48.370;-3.750;2022-09-09T18:47:30;1.75;;;0.55;;
47401;SDS011;33155;48.370;-3.750;2022-09-09T18:49:56;0.70;;;0.50;;
47401;SDS011;33155;48.370;-3.750;2022-09-09T18:52:21;2.83;;;0.45;;
47401;SDS011;33155;48.370;-3.750;2022-09-09T18:54:46;0.52;;;0.38;;
47401;SDS011;33155;48.370;-3.750;2022-09-09T18:57:12;0.63;;;0.47;;
47401;SDS011;33155;48.370;-3.750;2022-09-09T18:59:38;1.02;;;0.40;;
47401;SDS011;33155;48.370;-3.750;2022-09-09T19:02:03;0.68;;;0.50;;
47401;SDS011;33155;48.370;-3.750;2022-09-09T19:04:29;2.00;;;0.40;;
47401;SDS011;33155;48.370;-3.750;2022-09-09T19:06:56;0.93;;;0.40;;
47401;SDS011;33155;48.370;-3.750;2022-09-09T19:09:23;2.88;;;1.05;;
47401;SDS011;33155;48.370;-3.750;2022-09-09T19:11:50;1.08;;;0.45;;
47401;SDS011;33155;48.370;-3.750;2022-09-09T19:14:16;1.17;;;0.45;;
47401;SDS011;33155;48.370;-3.750;2022-09-09T19:16:42;0.93;;;0.35;;
47401;SDS011;33155;48.370;-3.750;2022-09-09T19:19:16;1.27;;;0.50;;
47401;SDS011;33155;48.370;-3.750;2022-09-09T19:21:44;0.50;;;0.50;;
47401;SDS011;33155;48.370;-3.750;2022-09-09T19:24:26;0.30;;;0.30;;
47401;SDS011;33155;48.370;-3.750;2022-09-09T19:26:53;0.40;;;0.40;;
47401;SDS011;33155;48.370;-3.750;2022-09-09T19:29:25;0.32;;;0.30;;
47401;SDS011;33155;48.370;-3.750;2022-09-09T19:31:52;0.45;;;0.45;;
47401;SDS011;33155;48.370;-3.750;2022-09-09T19:34:19;1.40;;;0.57;;
47401;SDS011;33155;48.370;-3.750;2022-09-09T19:36:45;1.35;;;0.52;;
47401;SDS011;33155;48.370;-3.750;2022-09-09T19:39:12;0.40;;;0.30;;
47401;SDS011;33155;48.370;-3.750;2022-09-09T19:41:38;0.93;;;0.30;;
47401;SDS011;33155;48.370;-3.750;2022-09-09T19:44:04;0.35;;;0.30;;
47401;SDS011;33155;48.370;-3.750;2022-09-09T19:46:31;0.30;;;0.30;;
47401;SDS011;33155;48.370;-3.750;2022-09-09T19:48:58;0.40;;;0.40;;
47401;SDS011;33155;48.370;-3.750;2022-09-09T19:51:25;0.82;;;0.40;;
47401;SDS011;33155;48.370;-3.750;2022-09-09T19:53:57;0.47;;;0.40;;
47401;SDS011;33155;48.370;-3.750;2022-09-09T19:56:27;0.30;;;0.30;;
47401;SDS011;33155;48.370;-3.750;2022-09-09T19:58:53;0.47;;;0.35;;
